Pittsville, Wisconsin
Current Conditions -  °F | °C
As of 2:54 PM on Tuesday 27 Jan 2015 (Local Time) from KMFI Reporting Station
Haze Haze  
Wind Chill: 16°   Ceiling: 1300
Heat Index: 25°   Visibility: 5mi
Dew Point: 21°   Wind: 9mph
Humidity: 85%   Direction: 130°SE
Pressure: 30.18"   Gusts: NA
Location:  44.44°N, 90.12°W
Report Text: KMFI 272054Z AUTO 13008KT 5SM BR OVC013 M04/M06 A3018 RMK AO2 SLP240 T10391061 50001
Loading
Personal Weather Stations






























Interactive Weather Map New forecast layout! Learn more

10-Day Weather Forecast

Advertisements
Track Severe Weather on mobile